Bathurst, Canada
Current Conditions -  °F | °C
As of 5:00 PM on Friday 31 Oct 2014 (Local Time) from CZBF Reporting Station
Broken Clouds Broken Clouds  
Wind Chill: 39°   Ceiling: 5000
Heat Index: 43°   Visibility: 15mi
Dew Point: 25°   Wind: 7mph
Humidity: 49%   Direction: 270°W
Pressure: 30.08"   Gusts: NA
Location:  47.62°N, 65.65°W
Report Text: CZBF 312000Z 27006KT 15SM FEW025 BKN050 BKN200 06/M04 A3008 RMK SC1SC6CC1 CC TR SLP187
Loading
Personal Weather Stations






























Interactive Weather Map
Tropical Storm Tracking
New forecast layout! Learn more

10-Day Weather Forecast

Advertisements
Track Severe Weather on mobile